sensor_id;sensor_type;location;lat;lon;timestamp;temperature;humidity
9915;DHT22;4996;48.746;9.174;2022-12-18T00:03:40;-5.60;99.90
9915;DHT22;4996;48.746;9.174;2022-12-18T00:06:06;-5.60;99.90
9915;DHT22;4996;48.746;9.174;2022-12-18T00:08:31;-5.60;99.90
9915;DHT22;4996;48.746;9.174;2022-12-18T00:11:04;-5.60;99.90
9915;DHT22;4996;48.746;9.174;2022-12-18T00:13:30;-5.60;99.90
9915;DHT22;4996;48.746;9.174;2022-12-18T00:15:55;-5.60;99.90
9915;DHT22;4996;48.746;9.174;2022-12-18T00:18:26;-5.70;99.90
9915;DHT22;4996;48.746;9.174;2022-12-18T00:20:51;-5.70;99.90
9915;DHT22;4996;48.746;9.174;2022-12-18T00:23:17;-5.70;99.90
9915;DHT22;4996;48.746;9.174;2022-12-18T00:25:42;-5.70;99.90
9915;DHT22;4996;48.746;9.174;2022-12-18T00:28:08;-5.70;99.90
9915;DHT22;4996;48.746;9.174;2022-12-18T00:30:33;-5.70;99.90
9915;DHT22;4996;48.746;9.174;2022-12-18T00:32:59;-5.70;99.90
9915;DHT22;4996;48.746;9.174;2022-12-18T00:35:24;-5.80;99.90
9915;DHT22;4996;48.746;9.174;2022-12-18T00:37:50;-6.00;99.90
9915;DHT22;4996;48.746;9.174;2022-12-18T00:40:16;-5.80;99.90
9915;DHT22;4996;48.746;9.174;2022-12-18T00:42:41;-5.80;99.90
9915;DHT22;4996;48.746;9.174;2022-12-18T00:45:25;-5.80;99.90
9915;DHT22;4996;48.746;9.174;2022-12-18T00:47:51;-5.70;99.90
9915;DHT22;4996;48.746;9.174;2022-12-18T00:50:17;-5.70;99.90
9915;DHT22;4996;48.746;9.174;2022-12-18T00:52:43;-5.70;99.90
9915;DHT22;4996;48.746;9.174;2022-12-18T00:55:09;-5.80;99.90
9915;DHT22;4996;48.746;9.174;2022-12-18T00:57:35;-5.90;99.90
9915;DHT22;4996;48.746;9.174;2022-12-18T01:00:01;-6.00;99.90
9915;DHT22;4996;48.746;9.174;2022-12-18T01:02:26;-6.00;99.90
9915;DHT22;4996;48.746;9.174;2022-12-18T01:04:52;-6.00;99.90
9915;DHT22;4996;48.746;9.174;2022-12-18T01:07:17;-6.00;99.90
9915;DHT22;4996;48.746;9.174;2022-12-18T01:09:43;-6.00;99.90
9915;DHT22;4996;48.746;9.174;2022-12-18T01:12:08;-6.10;99.90
9915;DHT22;4996;48.746;9.174;2022-12-18T01:14:34;-6.20;99.90
9915;DHT22;4996;48.746;9.174;2022-12-18T01:16:59;-6.20;99.90
9915;DHT22;4996;48.746;9.174;2022-12-18T01:19:27;-6.10;99.90
9915;DHT22;4996;48.746;9.174;2022-12-18T01:21:52;-6.10;99.90
9915;DHT22;4996;48.746;9.174;2022-12-18T01:24:18;-6.20;99.90
9915;DHT22;4996;48.746;9.174;2022-12-18T01:26:43;-6.20;99.90
9915;DHT22;4996;48.746;9.174;2022-12-18T01:29:09;-6.20;99.90
9915;DHT22;4996;48.746;9.174;2022-12-18T01:31:34;-6.20;99.90
9915;DHT22;4996;48.746;9.174;2022-12-18T01:34:01;-6.20;99.90
9915;DHT22;4996;48.746;9.174;2022-12-18T01:36:32;-6.20;99.90
9915;DHT22;4996;48.746;9.174;2022-12-18T01:39:04;-6.10;99.90
9915;DHT22;4996;48.746;9.174;2022-12-18T01:41:31;-6.10;99.90
9915;DHT22;4996;48.746;9.174;2022-12-18T01:47:44;-6.20;99.90
9915;DHT22;4996;48.746;9.174;2022-12-18T01:52:50;-6.10;99.90
9915;DHT22;4996;48.746;9.174;2022-12-18T01:55:19;-6.10;99.90
9915;DHT22;4996;48.746;9.174;2022-12-18T01:57:45;-6.10;99.90
9915;DHT22;4996;48.746;9.174;2022-12-18T02:00:17;-6.00;99.90
9915;DHT22;4996;48.746;9.174;2022-12-18T02:02:44;-5.90;99.90
9915;DHT22;4996;48.746;9.174;2022-12-18T02:05:11;-5.90;99.90
9915;DHT22;4996;48.746;9.174;2022-12-18T02:08:08;-5.80;99.90
9915;DHT22;4996;48.746;9.174;2022-12-18T02:11:17;-5.80;99.90
9915;DHT22;4996;48.746;9.174;2022-12-18T02:17:22;-5.80;99.90
9915;DHT22;4996;48.746;9.174;2022-12-18T02:20:27;-5.90;99.90
9915;DHT22;4996;48.746;9.174;2022-12-18T02:26:07;-6.00;99.90
9915;DHT22;4996;48.746;9.174;2022-12-18T02:28:40;-6.00;99.90
9915;DHT22;4996;48.746;9.174;2022-12-18T02:31:11;-6.00;99.90
9915;DHT22;4996;48.746;9.174;2022-12-18T02:33:40;-6.00;99.90
9915;DHT22;4996;48.746;9.174;2022-12-18T02:36:08;-5.90;99.90
9915;DHT22;4996;48.746;9.174;2022-12-18T02:38:35;-5.90;99.90
9915;DHT22;4996;48.746;9.174;2022-12-18T02:41:02;-5.90;99.90
9915;DHT22;4996;48.746;9.174;2022-12-18T02:43:29;-5.90;99.90
9915;DHT22;4996;48.746;9.174;2022-12-18T02:45:59;-5.90;99.90
9915;DHT22;4996;48.746;9.174;2022-12-18T02:48:34;-5.90;99.90
9915;DHT22;4996;48.746;9.174;2022-12-18T02:51:08;-6.00;99.90
9915;DHT22;4996;48.746;9.174;2022-12-18T02:53:48;-6.10;99.90
9915;DHT22;4996;48.746;9.174;2022-12-18T02:56:23;-6.20;99.90
9915;DHT22;4996;48.746;9.174;2022-12-18T03:04:16;-6.00;99.90
9915;DHT22;4996;48.746;9.174;2022-12-18T03:06:49;-6.00;99.90
9915;DHT22;4996;48.746;9.174;2022-12-18T03:09:21;-5.90;99.90
9915;DHT22;4996;48.746;9.174;2022-12-18T03:11:53;-5.70;99.90
9915;DHT22;4996;48.746;9.174;2022-12-18T03:14:40;-6.10;99.90
9915;DHT22;4996;48.746;9.174;2022-12-18T03:17:13;-6.00;99.90
9915;DHT22;4996;48.746;9.174;2022-12-18T03:19:41;-6.00;99.90
9915;DHT22;4996;48.746;9.174;2022-12-18T03:22:07;-6.10;99.90
9915;DHT22;4996;48.746;9.174;2022-12-18T03:24:33;-6.10;99.90
9915;DHT22;4996;48.746;9.174;2022-12-18T03:27:03;-6.10;99.90
9915;DHT22;4996;48.746;9.174;2022-12-18T03:29:38;-6.10;99.90
9915;DHT22;4996;48.746;9.174;2022-12-18T03:32:18;-6.10;99.90
9915;DHT22;4996;48.746;9.174;2022-12-18T03:34:48;-6.20;99.90
9915;DHT22;4996;48.746;9.174;2022-12-18T03:37:16;-6.10;99.90
9915;DHT22;4996;48.746;9.174;2022-12-18T03:39:41;-6.30;99.90
9915;DHT22;4996;48.746;9.174;2022-12-18T03:42:29;-6.40;99.90
9915;DHT22;4996;48.746;9.174;2022-12-18T03:45:08;-6.40;99.90
9915;DHT22;4996;48.746;9.174;2022-12-18T03:47:58;-6.40;99.90
9915;DHT22;4996;48.746;9.174;2022-12-18T03:53:47;-6.20;99.90
9915;DHT22;4996;48.746;9.174;2022-12-18T03:56:16;-6.50;99.90
9915;DHT22;4996;48.746;9.174;2022-12-18T03:58:44;-6.70;99.90
9915;DHT22;4996;48.746;9.174;2022-12-18T04:01:12;-6.90;99.90
9915;DHT22;4996;48.746;9.174;2022-12-18T04:03:39;-7.00;99.90
9915;DHT22;4996;48.746;9.174;2022-12-18T04:06:06;-7.00;99.90
9915;DHT22;4996;48.746;9.174;2022-12-18T04:08:32;-7.00;99.90
9915;DHT22;4996;48.746;9.174;2022-12-18T04:11:00;-7.20;99.90
9915;DHT22;4996;48.746;9.174;2022-12-18T04:13:34;-7.20;99.90
9915;DHT22;4996;48.746;9.174;2022-12-18T04:16:00;-7.30;99.90
9915;DHT22;4996;48.746;9.174;2022-12-18T04:18:26;-7.40;99.90
9915;DHT22;4996;48.746;9.174;2022-12-18T04:20:52;-7.50;99.90
9915;DHT22;4996;48.746;9.174;2022-12-18T04:23:17;-7.50;99.90
9915;DHT22;4996;48.746;9.174;2022-12-18T04:25:43;-7.70;99.90
9915;DHT22;4996;48.746;9.174;2022-12-18T04:28:08;-7.70;99.90
9915;DHT22;4996;48.746;9.174;2022-12-18T04:30:34;-7.70;99.90
9915;DHT22;4996;48.746;9.174;2022-12-18T04:32:59;-7.80;99.90
9915;DHT22;4996;48.746;9.174;2022-12-18T04:35:25;-7.80;99.90
9915;DHT22;4996;48.746;9.174;2022-12-18T04:37:51;-7.80;99.90
9915;DHT22;4996;48.746;9.174;2022-12-18T04:40:16;-8.00;99.90
9915;DHT22;4996;48.746;9.174;2022-12-18T04:42:42;-8.00;99.90
9915;DHT22;4996;48.746;9.174;2022-12-18T04:45:08;-8.10;99.90
9915;DHT22;4996;48.746;9.174;2022-12-18T04:47:33;-8.10;99.90
9915;DHT22;4996;48.746;9.174;2022-12-18T04:49:59;-8.00;99.90
9915;DHT22;4996;48.746;9.174;2022-12-18T04:52:24;-8.10;99.90
9915;DHT22;4996;48.746;9.174;2022-12-18T04:54:50;-8.10;99.90
9915;DHT22;4996;48.746;9.174;2022-12-18T04:57:15;-8.10;99.90
9915;DHT22;4996;48.746;9.174;2022-12-18T04:59:43;-8.10;99.90
9915;DHT22;4996;48.746;9.174;2022-12-18T05:02:09;-8.10;99.90
9915;DHT22;4996;48.746;9.174;2022-12-18T05:04:34;-8.20;99.90
9915;DHT22;4996;48.746;9.174;2022-12-18T05:07:00;-8.30;99.90
9915;DHT22;4996;48.746;9.174;2022-12-18T05:09:25;-7.90;99.90
9915;DHT22;4996;48.746;9.174;2022-12-18T05:11:51;-8.30;99.90
9915;DHT22;4996;48.746;9.174;2022-12-18T05:14:16;-8.30;99.90
9915;DHT22;4996;48.746;9.174;2022-12-18T05:16:42;-8.30;99.90
9915;DHT22;4996;48.746;9.174;2022-12-18T05:19:07;-8.30;99.90
9915;DHT22;4996;48.746;9.174;2022-12-18T05:21:33;-8.20;99.90
9915;DHT22;4996;48.746;9.174;2022-12-18T05:23:58;-8.20;99.90
9915;DHT22;4996;48.746;9.174;2022-12-18T05:26:24;-8.20;99.90
9915;DHT22;4996;48.746;9.174;2022-12-18T05:28:50;-8.30;99.90
9915;DHT22;4996;48.746;9.174;2022-12-18T05:31:15;-8.20;99.90
9915;DHT22;4996;48.746;9.174;2022-12-18T05:33:41;-8.20;99.90
9915;DHT22;4996;48.746;9.174;2022-12-18T05:36:07;-8.10;99.90
9915;DHT22;4996;48.746;9.174;2022-12-18T05:38:35;-7.80;99.90
9915;DHT22;4996;48.746;9.174;2022-12-18T05:41:02;-8.10;99.90
9915;DHT22;4996;48.746;9.174;2022-12-18T05:43:28;-8.10;99.90
9915;DHT22;4996;48.746;9.174;2022-12-18T05:45:54;-8.00;99.90
9915;DHT22;4996;48.746;9.174;2022-12-18T05:48:20;-7.90;99.90
9915;DHT22;4996;48.746;9.174;2022-12-18T05:50:47;-8.10;99.90
9915;DHT22;4996;48.746;9.174;2022-12-18T05:53:15;-8.00;99.90
9915;DHT22;4996;48.746;9.174;2022-12-18T05:55:42;-8.00;99.90
9915;DHT22;4996;48.746;9.174;2022-12-18T05:58:10;-8.10;99.90
9915;DHT22;4996;48.746;9.174;2022-12-18T06:00:41;-8.10;99.90
9915;DHT22;4996;48.746;9.174;2022-12-18T06:03:07;-8.20;99.90
9915;DHT22;4996;48.746;9.174;2022-12-18T06:05:40;-8.30;99.90
9915;DHT22;4996;48.746;9.174;2022-12-18T06:08:06;-8.30;99.90
9915;DHT22;4996;48.746;9.174;2022-12-18T06:10:31;-8.20;99.90
9915;DHT22;4996;48.746;9.174;2022-12-18T06:12:57;-8.20;99.90
9915;DHT22;4996;48.746;9.174;2022-12-18T06:15:23;-8.10;99.90
9915;DHT22;4996;48.746;9.174;2022-12-18T06:17:49;-8.00;99.90
9915;DHT22;4996;48.746;9.174;2022-12-18T06:20:14;-8.20;99.90
9915;DHT22;4996;48.746;9.174;2022-12-18T06:22:40;-8.20;99.90
9915;DHT22;4996;48.746;9.174;2022-12-18T06:25:06;-8.20;99.90
9915;DHT22;4996;48.746;9.174;2022-12-18T06:27:31;-8.30;99.90
9915;DHT22;4996;48.746;9.174;2022-12-18T06:29:59;-8.20;99.90
9915;DHT22;4996;48.746;9.174;2022-12-18T06:32:24;-8.20;99.90
9915;DHT22;4996;48.746;9.174;2022-12-18T06:34:50;-8.10;99.90
9915;DHT22;4996;48.746;9.174;2022-12-18T06:37:15;-8.10;99.90
9915;DHT22;4996;48.746;9.174;2022-12-18T06:39:41;-8.20;99.90
9915;DHT22;4996;48.746;9.174;2022-12-18T06:42:06;-8.30;99.90
9915;DHT22;4996;48.746;9.174;2022-12-18T06:44:32;-8.20;99.90
9915;DHT22;4996;48.746;9.174;2022-12-18T06:46:57;-8.30;99.90
9915;DHT22;4996;48.746;9.174;2022-12-18T06:49:23;-8.20;99.90
9915;DHT22;4996;48.746;9.174;2022-12-18T06:51:48;-8.30;99.90
9915;DHT22;4996;48.746;9.174;2022-12-18T06:54:14;-8.10;99.90
9915;DHT22;4996;48.746;9.174;2022-12-18T06:56:39;-8.20;99.90
9915;DHT22;4996;48.746;9.174;2022-12-18T06:59:05;-8.20;99.90
9915;DHT22;4996;48.746;9.174;2022-12-18T07:01:30;-8.30;99.90
9915;DHT22;4996;48.746;9.174;2022-12-18T07:03:57;-8.30;99.90
9915;DHT22;4996;48.746;9.174;2022-12-18T07:06:24;-8.30;99.90
9915;DHT22;4996;48.746;9.174;2022-12-18T07:08:51;-8.20;99.90
9915;DHT22;4996;48.746;9.174;2022-12-18T07:11:18;-8.20;99.90
9915;DHT22;4996;48.746;9.174;2022-12-18T07:13:44;-8.10;99.90
9915;DHT22;4996;48.746;9.174;2022-12-18T07:16:18;-8.00;99.90
9915;DHT22;4996;48.746;9.174;2022-12-18T07:18:44;-7.90;99.90
9915;DHT22;4996;48.746;9.174;2022-12-18T07:21:15;-7.90;99.90
9915;DHT22;4996;48.746;9.174;2022-12-18T07:23:41;-7.80;99.90
9915;DHT22;4996;48.746;9.174;2022-12-18T07:26:10;-7.70;99.90
9915;DHT22;4996;48.746;9.174;2022-12-18T07:28:36;-7.60;99.90
9915;DHT22;4996;48.746;9.174;2022-12-18T07:31:07;-7.60;99.90
9915;DHT22;4996;48.746;9.174;2022-12-18T07:33:33;-7.60;99.90
9915;DHT22;4996;48.746;9.174;2022-12-18T07:36:00;-7.50;99.90
9915;DHT22;4996;48.746;9.174;2022-12-18T07:38:25;-7.40;99.90
9915;DHT22;4996;48.746;9.174;2022-12-18T07:40:51;-7.40;99.90
9915;DHT22;4996;48.746;9.174;2022-12-18T07:43:16;-7.30;99.90
9915;DHT22;4996;48.746;9.174;2022-12-18T07:45:43;-7.40;99.90
9915;DHT22;4996;48.746;9.174;2022-12-18T07:48:08;-7.30;99.90
9915;DHT22;4996;48.746;9.174;2022-12-18T07:50:34;-7.10;99.90
9915;DHT22;4996;48.746;9.174;2022-12-18T07:52:59;-7.10;99.90
9915;DHT22;4996;48.746;9.174;2022-12-18T07:55:29;-6.90;99.90
9915;DHT22;4996;48.746;9.174;2022-12-18T07:57:55;-6.70;99.90
9915;DHT22;4996;48.746;9.174;2022-12-18T08:00:21;-6.70;99.90
9915;DHT22;4996;48.746;9.174;2022-12-18T08:02:47;-6.60;99.90
9915;DHT22;4996;48.746;9.174;2022-12-18T08:05:12;-6.60;99.90
9915;DHT22;4996;48.746;9.174;2022-12-18T08:07:39;-6.70;99.90
9915;DHT22;4996;48.746;9.174;2022-12-18T08:10:05;-6.60;99.90
9915;DHT22;4996;48.746;9.174;2022-12-18T08:12:31;-6.40;99.90
9915;DHT22;4996;48.746;9.174;2022-12-18T08:14:56;-6.40;99.90
9915;DHT22;4996;48.746;9.174;2022-12-18T08:17:22;-6.40;99.90
9915;DHT22;4996;48.746;9.174;2022-12-18T08:19:47;-6.30;99.90
9915;DHT22;4996;48.746;9.174;2022-12-18T08:22:13;-6.20;99.90
9915;DHT22;4996;48.746;9.174;2022-12-18T08:24:38;-6.60;99.90
9915;DHT22;4996;48.746;9.174;2022-12-18T08:27:04;-6.50;99.90
9915;DHT22;4996;48.746;9.174;2022-12-18T08:29:29;-6.50;99.90
9915;DHT22;4996;48.746;9.174;2022-12-18T08:31:55;-6.50;99.90
9915;DHT22;4996;48.746;9.174;2022-12-18T08:34:21;-6.50;99.90
9915;DHT22;4996;48.746;9.174;2022-12-18T08:36:47;-6.40;99.90
9915;DHT22;4996;48.746;9.174;2022-12-18T08:39:12;-6.40;99.90
9915;DHT22;4996;48.746;9.174;2022-12-18T08:41:38;-6.30;99.90
9915;DHT22;4996;48.746;9.174;2022-12-18T08:44:03;-6.20;99.90
9915;DHT22;4996;48.746;9.174;2022-12-18T08:46:47;-6.10;99.90
9915;DHT22;4996;48.746;9.174;2022-12-18T08:49:13;-6.00;99.90
9915;DHT22;4996;48.746;9.174;2022-12-18T08:51:39;-5.90;99.90
9915;DHT22;4996;48.746;9.174;2022-12-18T08:54:05;-5.80;99.90
9915;DHT22;4996;48.746;9.174;2022-12-18T08:56:31;-5.70;99.90
9915;DHT22;4996;48.746;9.174;2022-12-18T08:58:57;-5.60;99.90
9915;DHT22;4996;48.746;9.174;2022-12-18T09:01:23;-5.60;99.90
9915;DHT22;4996;48.746;9.174;2022-12-18T09:03:50;-5.50;99.90
9915;DHT22;4996;48.746;9.174;2022-12-18T09:06:17;-5.50;99.90
9915;DHT22;4996;48.746;9.174;2022-12-18T09:08:46;-5.10;99.90
9915;DHT22;4996;48.746;9.174;2022-12-18T09:11:14;-5.30;99.90
9915;DHT22;4996;48.746;9.174;2022-12-18T09:13:40;-5.00;99.90
9915;DHT22;4996;48.746;9.174;2022-12-18T09:16:06;-5.00;99.90
9915;DHT22;4996;48.746;9.174;2022-12-18T09:18:32;-3.90;99.90
9915;DHT22;4996;48.746;9.174;2022-12-18T09:20:57;-3.70;99.90
9915;DHT22;4996;48.746;9.174;2022-12-18T09:23:23;-3.90;99.90
9915;DHT22;4996;48.746;9.174;2022-12-18T09:25:48;-3.80;99.90
9915;DHT22;4996;48.746;9.174;2022-12-18T09:28:16;-3.80;99.90
9915;DHT22;4996;48.746;9.174;2022-12-18T09:30:44;-3.80;99.90
9915;DHT22;4996;48.746;9.174;2022-12-18T09:33:10;-3.60;99.90
9915;DHT22;4996;48.746;9.174;2022-12-18T09:35:37;-3.70;99.90
9915;DHT22;4996;48.746;9.174;2022-12-18T09:38:02;-3.40;99.90
9915;DHT22;4996;48.746;9.174;2022-12-18T09:40:34;-3.60;99.90
9915;DHT22;4996;48.746;9.174;2022-12-18T09:43:03;-3.50;99.90
9915;DHT22;4996;48.746;9.174;2022-12-18T09:45:51;-3.40;99.90
9915;DHT22;4996;48.746;9.174;2022-12-18T09:48:27;-3.30;99.90
9915;DHT22;4996;48.746;9.174;2022-12-18T09:50:58;-3.40;99.90
9915;DHT22;4996;48.746;9.174;2022-12-18T09:53:30;-3.30;99.90
9915;DHT22;4996;48.746;9.174;2022-12-18T09:55:57;-3.00;99.90
9915;DHT22;4996;48.746;9.174;2022-12-18T10:00:57;-3.50;99.90
9915;DHT22;4996;48.746;9.174;2022-12-18T10:03:22;-3.30;99.90
9915;DHT22;4996;48.746;9.174;2022-12-18T10:06:27;-3.60;99.90
9915;DHT22;4996;48.746;9.174;2022-12-18T10:09:27;-3.50;99.90
9915;DHT22;4996;48.746;9.174;2022-12-18T10:14:30;-3.30;99.90
9915;DHT22;4996;48.746;9.174;2022-12-18T10:18:22;-2.50;99.90
9915;DHT22;4996;48.746;9.174;2022-12-18T10:20:21;-1.80;99.90
9915;DHT22;4996;48.746;9.174;2022-12-18T10:23:08;-1.10;99.90
9915;DHT22;4996;48.746;9.174;2022-12-18T10:25:50;-1.30;99.90
9915;DHT22;4996;48.746;9.174;2022-12-18T10:28:18;-1.40;99.90
9915;DHT22;4996;48.746;9.174;2022-12-18T10:30:44;-0.80;99.90
9915;DHT22;4996;48.746;9.174;2022-12-18T10:33:17;-0.50;99.90
9915;DHT22;4996;48.746;9.174;2022-12-18T10:35:43;-0.20;99.90
9915;DHT22;4996;48.746;9.174;2022-12-18T10:41:06;0.10;99.90
9915;DHT22;4996;48.746;9.174;2022-12-18T10:43:34;0.90;99.90
9915;DHT22;4996;48.746;9.174;2022-12-18T10:51:34;2.00;99.90
9915;DHT22;4996;48.746;9.174;2022-12-18T10:54:02;2.60;99.90
9915;DHT22;4996;48.746;9.174;2022-12-18T10:56:30;2.40;99.90
9915;DHT22;4996;48.746;9.174;2022-12-18T10:59:05;2.50;99.90
9915;DHT22;4996;48.746;9.174;2022-12-18T11:01:54;2.90;99.90
9915;DHT22;4996;48.746;9.174;2022-12-18T11:07:09;3.60;99.90
9915;DHT22;4996;48.746;9.174;2022-12-18T11:09:37;3.70;99.90
9915;DHT22;4996;48.746;9.174;2022-12-18T11:12:14;3.40;99.90
9915;DHT22;4996;48.746;9.174;2022-12-18T11:14:52;3.90;99.90
9915;DHT22;4996;48.746;9.174;2022-12-18T11:19:55;3.50;99.90
9915;DHT22;4996;48.746;9.174;2022-12-18T11:22:28;3.50;99.90
9915;DHT22;4996;48.746;9.174;2022-12-18T11:24:56;3.40;99.90
9915;DHT22;4996;48.746;9.174;2022-12-18T11:27:23;2.50;99.90
9915;DHT22;4996;48.746;9.174;2022-12-18T11:29:50;1.50;99.90
9915;DHT22;4996;48.746;9.174;2022-12-18T11:32:39;0.60;99.90
9915;DHT22;4996;48.746;9.174;2022-12-18T11:37:56;-0.40;99.90
9915;DHT22;4996;48.746;9.174;2022-12-18T11:40:32;-1.00;99.90
9915;DHT22;4996;48.746;9.174;2022-12-18T11:43:06;-1.00;99.90
9915;DHT22;4996;48.746;9.174;2022-12-18T11:45:45;-1.20;99.90
9915;DHT22;4996;48.746;9.174;2022-12-18T11:48:36;-1.40;99.90
9915;DHT22;4996;48.746;9.174;2022-12-18T11:51:04;-1.40;99.90
9915;DHT22;4996;48.746;9.174;2022-12-18T11:53:34;-1.30;99.90
9915;DHT22;4996;48.746;9.174;2022-12-18T11:56:43;-1.30;99.90
9915;DHT22;4996;48.746;9.174;2022-12-18T11:59:38;-1.20;99.90
9915;DHT22;4996;48.746;9.174;2022-12-18T12:02:40;-1.30;99.90
9915;DHT22;4996;48.746;9.174;2022-12-18T12:13:23;-1.50;99.90
9915;DHT22;4996;48.746;9.174;2022-12-18T12:21:43;-1.30;99.90
9915;DHT22;4996;48.746;9.174;2022-12-18T12:32:41;0.50;99.90
9915;DHT22;4996;48.746;9.174;2022-12-18T12:35:25;0.70;99.90
9915;DHT22;4996;48.746;9.174;2022-12-18T12:40:31;1.10;99.90
9915;DHT22;4996;48.746;9.174;2022-12-18T12:43:08;1.20;99.90
9915;DHT22;4996;48.746;9.174;2022-12-18T12:45:54;1.40;99.90
9915;DHT22;4996;48.746;9.174;2022-12-18T12:51:12;1.10;99.90
9915;DHT22;4996;48.746;9.174;2022-12-18T12:53:39;0.90;99.90
9915;DHT22;4996;48.746;9.174;2022-12-18T12:56:08;0.70;99.90
9915;DHT22;4996;48.746;9.174;2022-12-18T13:01:24;0.70;99.90
9915;DHT22;4996;48.746;9.174;2022-12-18T13:04:13;0.80;99.90
9915;DHT22;4996;48.746;9.174;2022-12-18T13:06:53;0.50;99.90
9915;DHT22;4996;48.746;9.174;2022-12-18T13:09:21;0.70;99.90
9915;DHT22;4996;48.746;9.174;2022-12-18T13:11:47;0.60;99.90
9915;DHT22;4996;48.746;9.174;2022-12-18T13:14:37;0.50;99.90
9915;DHT22;4996;48.746;9.174;2022-12-18T13:19:51;0.20;99.90
9915;DHT22;4996;48.746;9.174;2022-12-18T13:22:25;0.30;99.90
9915;DHT22;4996;48.746;9.174;2022-12-18T13:24:53;0.40;99.90
9915;DHT22;4996;48.746;9.174;2022-12-18T13:38:47;0.30;99.90
9915;DHT22;4996;48.746;9.174;2022-12-18T13:41:32;0.40;99.90
9915;DHT22;4996;48.746;9.174;2022-12-18T13:46:47;0.20;99.90
9915;DHT22;4996;48.746;9.174;2022-12-18T13:51:43;0.10;99.90
9915;DHT22;4996;48.746;9.174;2022-12-18T13:54:38;-0.10;99.90
9915;DHT22;4996;48.746;9.174;2022-12-18T13:57:05;-0.30;99.90
9915;DHT22;4996;48.746;9.174;2022-12-18T13:59:36;-0.10;99.90
9915;DHT22;4996;48.746;9.174;2022-12-18T14:02:16;-0.30;99.90
9915;DHT22;4996;48.746;9.174;2022-12-18T14:04:45;-0.30;99.90
9915;DHT22;4996;48.746;9.174;2022-12-18T14:09:46;-0.30;99.90
9915;DHT22;4996;48.746;9.174;2022-12-18T14:12:22;-0.40;99.90
9915;DHT22;4996;48.746;9.174;2022-12-18T14:18:01;-0.50;99.90
9915;DHT22;4996;48.746;9.174;2022-12-18T14:20:31;-0.50;99.90
9915;DHT22;4996;48.746;9.174;2022-12-18T14:22:57;-0.50;99.90
9915;DHT22;4996;48.746;9.174;2022-12-18T14:25:25;-0.60;99.90
9915;DHT22;4996;48.746;9.174;2022-12-18T14:30:43;-0.70;99.90
9915;DHT22;4996;48.746;9.174;2022-12-18T14:33:14;-0.70;99.90
9915;DHT22;4996;48.746;9.174;2022-12-18T14:35:59;-0.80;99.90
9915;DHT22;4996;48.746;9.174;2022-12-18T14:38:36;-0.90;99.90
9915;DHT22;4996;48.746;9.174;2022-12-18T14:41:10;-0.80;99.90
9915;DHT22;4996;48.746;9.174;2022-12-18T14:43:39;-0.80;99.90
9915;DHT22;4996;48.746;9.174;2022-12-18T14:46:24;-0.90;99.90
9915;DHT22;4996;48.746;9.174;2022-12-18T14:48:51;-0.80;99.90
9915;DHT22;4996;48.746;9.174;2022-12-18T14:51:21;-0.90;99.90
9915;DHT22;4996;48.746;9.174;2022-12-18T14:53:51;-1.00;99.90
9915;DHT22;4996;48.746;9.174;2022-12-18T14:58:45;-1.10;99.90
9915;DHT22;4996;48.746;9.174;2022-12-18T15:01:19;-1.10;99.90
9915;DHT22;4996;48.746;9.174;2022-12-18T15:03:45;-1.20;99.90
9915;DHT22;4996;48.746;9.174;2022-12-18T15:08:49;-1.20;99.90
9915;DHT22;4996;48.746;9.174;2022-12-18T15:11:28;-1.40;99.90
9915;DHT22;4996;48.746;9.174;2022-12-18T15:13:54;-1.40;99.90
9915;DHT22;4996;48.746;9.174;2022-12-18T15:16:20;-1.50;99.90
9915;DHT22;4996;48.746;9.174;2022-12-18T15:18:46;-1.50;99.90
9915;DHT22;4996;48.746;9.174;2022-12-18T15:21:18;-1.50;99.90
9915;DHT22;4996;48.746;9.174;2022-12-18T15:26:11;-1.60;99.90
9915;DHT22;4996;48.746;9.174;2022-12-18T15:28:43;-1.70;99.90
9915;DHT22;4996;48.746;9.174;2022-12-18T15:33:37;-1.90;99.90
9915;DHT22;4996;48.746;9.174;2022-12-18T15:36:08;-2.00;99.90
9915;DHT22;4996;48.746;9.174;2022-12-18T15:38:34;-2.00;99.90
9915;DHT22;4996;48.746;9.174;2022-12-18T15:40:59;-2.10;99.90
9915;DHT22;4996;48.746;9.174;2022-12-18T15:43:26;-2.20;99.90
9915;DHT22;4996;48.746;9.174;2022-12-18T15:46:06;-1.70;99.90
9915;DHT22;4996;48.746;9.174;2022-12-18T15:48:34;-2.10;99.90
9915;DHT22;4996;48.746;9.174;2022-12-18T15:51:01;-2.00;99.90
9915;DHT22;4996;48.746;9.174;2022-12-18T15:53:32;-2.20;99.90
9915;DHT22;4996;48.746;9.174;2022-12-18T15:55:59;-1.80;99.90
9915;DHT22;4996;48.746;9.174;2022-12-18T15:58:43;-2.20;99.90
9915;DHT22;4996;48.746;9.174;2022-12-18T16:01:09;-1.80;99.90
9915;DHT22;4996;48.746;9.174;2022-12-18T16:03:35;-2.20;99.90
9915;DHT22;4996;48.746;9.174;2022-12-18T16:06:01;-2.40;99.90
9915;DHT22;4996;48.746;9.174;2022-12-18T16:08:28;-2.30;99.90
9915;DHT22;4996;48.746;9.174;2022-12-18T16:10:54;-2.40;99.90
9915;DHT22;4996;48.746;9.174;2022-12-18T16:13:20;-2.30;99.90
9915;DHT22;4996;48.746;9.174;2022-12-18T16:15:46;-2.30;99.90
9915;DHT22;4996;48.746;9.174;2022-12-18T16:18:11;-2.30;99.90
9915;DHT22;4996;48.746;9.174;2022-12-18T16:20:38;-2.20;99.90
9915;DHT22;4996;48.746;9.174;2022-12-18T16:23:03;-1.90;99.90
9915;DHT22;4996;48.746;9.174;2022-12-18T16:25:30;-1.90;99.90
9915;DHT22;4996;48.746;9.174;2022-12-18T16:27:56;-2.40;99.90
9915;DHT22;4996;48.746;9.174;2022-12-18T16:30:24;-2.40;99.90
9915;DHT22;4996;48.746;9.174;2022-12-18T16:32:52;-2.60;99.90
9915;DHT22;4996;48.746;9.174;2022-12-18T16:35:18;-2.50;99.90
9915;DHT22;4996;48.746;9.174;2022-12-18T16:37:44;-2.50;99.90
9915;DHT22;4996;48.746;9.174;2022-12-18T16:40:12;-2.60;99.90
9915;DHT22;4996;48.746;9.174;2022-12-18T16:42:39;-2.50;99.90
9915;DHT22;4996;48.746;9.174;2022-12-18T16:45:06;-2.50;99.90
9915;DHT22;4996;48.746;9.174;2022-12-18T16:47:33;-2.30;99.90
9915;DHT22;4996;48.746;9.174;2022-12-18T16:49:58;-2.40;99.90
9915;DHT22;4996;48.746;9.174;2022-12-18T16:52:24;-2.40;99.90
9915;DHT22;4996;48.746;9.174;2022-12-18T16:54:49;-2.40;99.90
9915;DHT22;4996;48.746;9.174;2022-12-18T16:57:17;-2.60;99.90
9915;DHT22;4996;48.746;9.174;2022-12-18T16:59:43;-2.60;99.90
9915;DHT22;4996;48.746;9.174;2022-12-18T17:02:13;-2.60;99.90
9915;DHT22;4996;48.746;9.174;2022-12-18T17:04:39;-2.50;99.90
9915;DHT22;4996;48.746;9.174;2022-12-18T17:07:06;-2.50;99.90
9915;DHT22;4996;48.746;9.174;2022-12-18T17:09:32;-2.50;99.90
9915;DHT22;4996;48.746;9.174;2022-12-18T17:11:57;-2.50;99.90
9915;DHT22;4996;48.746;9.174;2022-12-18T17:14:24;-2.50;99.90
9915;DHT22;4996;48.746;9.174;2022-12-18T17:16:51;-2.50;99.90
9915;DHT22;4996;48.746;9.174;2022-12-18T17:19:16;-2.50;99.90
9915;DHT22;4996;48.746;9.174;2022-12-18T17:21:43;-2.20;99.90
9915;DHT22;4996;48.746;9.174;2022-12-18T17:24:09;-2.60;99.90
9915;DHT22;4996;48.746;9.174;2022-12-18T17:26:35;-2.60;99.90
9915;DHT22;4996;48.746;9.174;2022-12-18T17:29:01;-2.60;99.90
9915;DHT22;4996;48.746;9.174;2022-12-18T17:31:28;-2.40;99.90
9915;DHT22;4996;48.746;9.174;2022-12-18T17:33:54;-2.60;99.90
9915;DHT22;4996;48.746;9.174;2022-12-18T17:36:21;-2.60;99.90
9915;DHT22;4996;48.746;9.174;2022-12-18T17:38:55;-2.20;99.90
9915;DHT22;4996;48.746;9.174;2022-12-18T17:41:21;-2.40;99.90
9915;DHT22;4996;48.746;9.174;2022-12-18T17:43:55;-2.40;99.90
9915;DHT22;4996;48.746;9.174;2022-12-18T17:46:21;-2.40;99.90
9915;DHT22;4996;48.746;9.174;2022-12-18T17:48:48;-1.90;99.90
9915;DHT22;4996;48.746;9.174;2022-12-18T17:51:14;-2.40;99.90
9915;DHT22;4996;48.746;9.174;2022-12-18T17:53:40;-2.40;99.90
9915;DHT22;4996;48.746;9.174;2022-12-18T17:56:06;-2.30;99.90
9915;DHT22;4996;48.746;9.174;2022-12-18T17:58:34;-2.30;99.90
9915;DHT22;4996;48.746;9.174;2022-12-18T18:01:01;-2.40;99.90
9915;DHT22;4996;48.746;9.174;2022-12-18T18:03:27;-2.00;99.90
9915;DHT22;4996;48.746;9.174;2022-12-18T18:06:00;-2.40;99.90
9915;DHT22;4996;48.746;9.174;2022-12-18T18:08:26;-1.90;99.90
9915;DHT22;4996;48.746;9.174;2022-12-18T18:10:52;-2.40;99.90